Brownsville South Padre Island International Airport
KBRO : now visible

Airfield :











YOU CAN JOIN US ON...

 
LOGIN :

Register | Disclaimer

   EN    FR    IT 

 









Legend :    VFR   Marginal VFR   IFR   Intensive IFR   Very Intensive IFR
Visi :
Ceiling :
>= 8 km
>= 3000ft
5 to 8 km
1000 to 3000 ft
1500m to 5 km
500 to 1000 ft
800 to 1500m
200 to 500 ft
< 800m
< 200 ft
Symbols :   Thunderstorms  Fog  Heavy snow  Heavy precipitations  Wind > 20 kt






- Airport Elevation : 22 ft
- IATA code : BRO


KBRO - Brownsville South Padre Island International

CURRENT METAR :
  • 220553Z AUTO 13013KT 10SM BKN040 OVC055 19/12 A3018 RMK AO2 SLP217 T01890117 10189 20178 402000089 58026

EXPIRED METARs :
  • 220453Z 13010KT 10SM OVC045 19/11 A3022 RMK AO2 SLP233 T01890111
  • 220353Z 12010KT 10SM OVC049 18/11 A3024 RMK AO2 SLP237 T01830111

TAF KBRO
Valid from the 22 at 06:00 until the 23 at 06:00 UTC


220520Z 2206/2306 13010KT P6SM OVC045
FM220900 14009KT P6SM OVC025
FM221300 16016G24KT P6SM VCSH OVC019
FM230000 16016G22KT P6SM OVC050



MET'MAP, your aeronautical weather chart ! - Copyright ORBIFLY December 2007 - Disclaimer

ORBIFLY MET'MAP TEAM :

Programming & Development : Alexandra Zaïnal
Concept & original design : Baudouin d'Aumeries
Assistance for programming : Marc-Olivier Méhu
Technical & hardware support : Manuel Goepfert

Contact : metmap@orbifly.com




SOURCES & CREDITS :

   NOAA       Earth
Advisory